sensor_id;sensor_type;location;lat;lon;timestamp;temperature;humidity
10312;DHT22;5201;48.776;9.128;2023-09-18T00:00:47;23.50;99.90
10312;DHT22;5201;48.776;9.128;2023-09-18T00:03:16;23.50;99.90
10312;DHT22;5201;48.776;9.128;2023-09-18T00:05:43;23.40;99.90
10312;DHT22;5201;48.776;9.128;2023-09-18T00:08:08;23.40;99.90
10312;DHT22;5201;48.776;9.128;2023-09-18T00:10:34;23.40;99.90
10312;DHT22;5201;48.776;9.128;2023-09-18T00:13:00;23.40;99.90
10312;DHT22;5201;48.776;9.128;2023-09-18T00:15:26;23.50;99.90
10312;DHT22;5201;48.776;9.128;2023-09-18T00:17:52;23.40;99.90
10312;DHT22;5201;48.776;9.128;2023-09-18T00:20:18;23.40;99.90
10312;DHT22;5201;48.776;9.128;2023-09-18T00:22:44;23.50;99.90
10312;DHT22;5201;48.776;9.128;2023-09-18T00:25:09;23.50;99.90
10312;DHT22;5201;48.776;9.128;2023-09-18T00:27:35;23.50;99.90
10312;DHT22;5201;48.776;9.128;2023-09-18T00:30:04;23.50;99.90
10312;DHT22;5201;48.776;9.128;2023-09-18T00:32:31;23.50;99.90
10312;DHT22;5201;48.776;9.128;2023-09-18T00:34:57;23.50;99.90
10312;DHT22;5201;48.776;9.128;2023-09-18T00:37:22;23.50;99.90
10312;DHT22;5201;48.776;9.128;2023-09-18T00:39:49;23.50;99.90
10312;DHT22;5201;48.776;9.128;2023-09-18T00:42:15;23.50;99.90
10312;DHT22;5201;48.776;9.128;2023-09-18T00:44:43;23.50;99.90
10312;DHT22;5201;48.776;9.128;2023-09-18T00:47:10;23.50;99.90
10312;DHT22;5201;48.776;9.128;2023-09-18T00:49:38;23.50;99.90
10312;DHT22;5201;48.776;9.128;2023-09-18T00:52:05;23.50;99.90
10312;DHT22;5201;48.776;9.128;2023-09-18T00:54:33;23.50;99.90
10312;DHT22;5201;48.776;9.128;2023-09-18T00:57:00;23.50;99.90
10312;DHT22;5201;48.776;9.128;2023-09-18T00:59:26;23.50;99.90
10312;DHT22;5201;48.776;9.128;2023-09-18T01:01:52;23.60;99.90
10312;DHT22;5201;48.776;9.128;2023-09-18T01:04:18;23.20;99.90
10312;DHT22;5201;48.776;9.128;2023-09-18T01:06:44;23.60;99.90
10312;DHT22;5201;48.776;9.128;2023-09-18T01:09:09;23.60;99.90
10312;DHT22;5201;48.776;9.128;2023-09-18T01:11:59;23.60;99.90
10312;DHT22;5201;48.776;9.128;2023-09-18T01:14:33;23.60;99.90
10312;DHT22;5201;48.776;9.128;2023-09-18T01:17:03;23.50;99.90
10312;DHT22;5201;48.776;9.128;2023-09-18T01:19:46;23.40;99.90
10312;DHT22;5201;48.776;9.128;2023-09-18T01:22:14;23.50;99.90
10312;DHT22;5201;48.776;9.128;2023-09-18T01:24:40;23.50;99.90
10312;DHT22;5201;48.776;9.128;2023-09-18T01:27:12;23.70;99.90
10312;DHT22;5201;48.776;9.128;2023-09-18T01:29:44;23.60;99.90
10312;DHT22;5201;48.776;9.128;2023-09-18T01:32:10;23.50;99.90
10312;DHT22;5201;48.776;9.128;2023-09-18T01:34:56;23.50;99.90
10312;DHT22;5201;48.776;9.128;2023-09-18T01:37:28;23.60;99.90
10312;DHT22;5201;48.776;9.128;2023-09-18T01:39:54;23.70;99.90
10312;DHT22;5201;48.776;9.128;2023-09-18T01:42:23;23.70;99.90
10312;DHT22;5201;48.776;9.128;2023-09-18T01:44:49;23.80;99.90
10312;DHT22;5201;48.776;9.128;2023-09-18T01:47:17;23.70;99.90
10312;DHT22;5201;48.776;9.128;2023-09-18T01:49:43;23.60;99.90
10312;DHT22;5201;48.776;9.128;2023-09-18T01:52:09;23.50;99.90
10312;DHT22;5201;48.776;9.128;2023-09-18T01:54:36;23.50;99.90
10312;DHT22;5201;48.776;9.128;2023-09-18T01:57:02;23.40;99.90
10312;DHT22;5201;48.776;9.128;2023-09-18T01:59:28;23.40;99.90
10312;DHT22;5201;48.776;9.128;2023-09-18T02:01:54;23.50;99.90
10312;DHT22;5201;48.776;9.128;2023-09-18T02:04:20;23.50;99.90
10312;DHT22;5201;48.776;9.128;2023-09-18T02:06:47;23.50;99.90
10312;DHT22;5201;48.776;9.128;2023-09-18T02:09:13;23.50;99.90
10312;DHT22;5201;48.776;9.128;2023-09-18T02:11:42;23.50;99.90
10312;DHT22;5201;48.776;9.128;2023-09-18T02:14:08;23.40;99.90
10312;DHT22;5201;48.776;9.128;2023-09-18T02:16:36;23.40;99.90
10312;DHT22;5201;48.776;9.128;2023-09-18T02:19:05;23.30;99.90
10312;DHT22;5201;48.776;9.128;2023-09-18T02:21:31;23.10;99.90
10312;DHT22;5201;48.776;9.128;2023-09-18T02:23:57;23.20;99.90
10312;DHT22;5201;48.776;9.128;2023-09-18T02:26:23;23.00;99.90
10312;DHT22;5201;48.776;9.128;2023-09-18T02:28:51;22.60;99.90
10312;DHT22;5201;48.776;9.128;2023-09-18T02:31:17;22.50;99.90
10312;DHT22;5201;48.776;9.128;2023-09-18T02:33:43;22.50;99.90
10312;DHT22;5201;48.776;9.128;2023-09-18T02:36:08;21.60;99.90
10312;DHT22;5201;48.776;9.128;2023-09-18T02:38:34;22.70;99.90
10312;DHT22;5201;48.776;9.128;2023-09-18T02:41:00;22.70;99.90
10312;DHT22;5201;48.776;9.128;2023-09-18T02:43:26;22.80;99.90
10312;DHT22;5201;48.776;9.128;2023-09-18T02:45:52;22.70;99.90
10312;DHT22;5201;48.776;9.128;2023-09-18T02:48:18;22.70;99.90
10312;DHT22;5201;48.776;9.128;2023-09-18T02:50:44;22.70;99.90
10312;DHT22;5201;48.776;9.128;2023-09-18T02:53:23;22.70;99.90
10312;DHT22;5201;48.776;9.128;2023-09-18T02:55:51;22.70;99.90
10312;DHT22;5201;48.776;9.128;2023-09-18T02:58:17;22.60;99.90
10312;DHT22;5201;48.776;9.128;2023-09-18T03:00:46;22.60;99.90
10312;DHT22;5201;48.776;9.128;2023-09-18T03:03:12;22.50;99.90
10312;DHT22;5201;48.776;9.128;2023-09-18T03:05:39;22.40;99.90
10312;DHT22;5201;48.776;9.128;2023-09-18T03:08:05;22.30;99.90
10312;DHT22;5201;48.776;9.128;2023-09-18T03:10:34;22.30;99.90
10312;DHT22;5201;48.776;9.128;2023-09-18T03:13:03;22.20;99.90
10312;DHT22;5201;48.776;9.128;2023-09-18T03:15:30;22.20;99.90
10312;DHT22;5201;48.776;9.128;2023-09-18T03:17:59;22.10;99.90
10312;DHT22;5201;48.776;9.128;2023-09-18T03:20:26;22.10;99.90
10312;DHT22;5201;48.776;9.128;2023-09-18T03:22:54;22.30;99.90
10312;DHT22;5201;48.776;9.128;2023-09-18T03:25:20;22.30;99.90
10312;DHT22;5201;48.776;9.128;2023-09-18T03:27:45;22.10;99.90
10312;DHT22;5201;48.776;9.128;2023-09-18T03:30:11;22.00;99.90
10312;DHT22;5201;48.776;9.128;2023-09-18T03:32:42;21.60;99.90
10312;DHT22;5201;48.776;9.128;2023-09-18T03:35:09;21.70;99.90
10312;DHT22;5201;48.776;9.128;2023-09-18T03:37:43;21.80;99.90
10312;DHT22;5201;48.776;9.128;2023-09-18T03:40:09;21.90;99.90
10312;DHT22;5201;48.776;9.128;2023-09-18T03:42:35;21.90;99.90
10312;DHT22;5201;48.776;9.128;2023-09-18T03:45:00;21.90;99.90
10312;DHT22;5201;48.776;9.128;2023-09-18T03:47:26;21.90;99.90
10312;DHT22;5201;48.776;9.128;2023-09-18T03:49:52;21.90;99.90
10312;DHT22;5201;48.776;9.128;2023-09-18T03:52:17;22.20;99.90
10312;DHT22;5201;48.776;9.128;2023-09-18T03:54:43;22.00;99.90
10312;DHT22;5201;48.776;9.128;2023-09-18T03:57:08;22.10;99.90
10312;DHT22;5201;48.776;9.128;2023-09-18T03:59:34;22.10;99.90
10312;DHT22;5201;48.776;9.128;2023-09-18T04:02:00;22.10;99.90
10312;DHT22;5201;48.776;9.128;2023-09-18T04:04:25;22.10;99.90
10312;DHT22;5201;48.776;9.128;2023-09-18T04:06:51;22.00;99.90
10312;DHT22;5201;48.776;9.128;2023-09-18T04:09:16;22.00;99.90
10312;DHT22;5201;48.776;9.128;2023-09-18T04:11:43;22.00;99.90
10312;DHT22;5201;48.776;9.128;2023-09-18T04:14:09;22.00;99.90
10312;DHT22;5201;48.776;9.128;2023-09-18T04:16:34;22.00;99.90
10312;DHT22;5201;48.776;9.128;2023-09-18T04:19:03;22.10;99.90
10312;DHT22;5201;48.776;9.128;2023-09-18T04:21:29;22.10;99.90
10312;DHT22;5201;48.776;9.128;2023-09-18T04:23:55;22.00;99.90
10312;DHT22;5201;48.776;9.128;2023-09-18T04:26:24;22.00;99.90
10312;DHT22;5201;48.776;9.128;2023-09-18T04:28:55;22.00;99.90
10312;DHT22;5201;48.776;9.128;2023-09-18T04:31:20;22.10;99.90
10312;DHT22;5201;48.776;9.128;2023-09-18T04:33:46;22.00;99.90
10312;DHT22;5201;48.776;9.128;2023-09-18T04:36:11;22.00;99.90
10312;DHT22;5201;48.776;9.128;2023-09-18T04:38:37;22.10;99.90
10312;DHT22;5201;48.776;9.128;2023-09-18T04:41:02;22.10;99.90
10312;DHT22;5201;48.776;9.128;2023-09-18T04:43:28;21.90;99.90
10312;DHT22;5201;48.776;9.128;2023-09-18T04:45:56;21.90;99.90
10312;DHT22;5201;48.776;9.128;2023-09-18T04:48:22;21.80;99.90
10312;DHT22;5201;48.776;9.128;2023-09-18T04:50:48;21.80;99.90
10312;DHT22;5201;48.776;9.128;2023-09-18T04:53:14;21.60;99.90
10312;DHT22;5201;48.776;9.128;2023-09-18T04:55:39;21.50;99.90
10312;DHT22;5201;48.776;9.128;2023-09-18T04:58:05;21.50;99.90
10312;DHT22;5201;48.776;9.128;2023-09-18T05:00:32;21.70;99.90
10312;DHT22;5201;48.776;9.128;2023-09-18T05:02:58;21.40;99.90
10312;DHT22;5201;48.776;9.128;2023-09-18T05:05:27;21.10;99.90
10312;DHT22;5201;48.776;9.128;2023-09-18T05:07:52;21.10;99.90
10312;DHT22;5201;48.776;9.128;2023-09-18T05:10:18;21.10;99.90
10312;DHT22;5201;48.776;9.128;2023-09-18T05:12:44;21.00;99.90
10312;DHT22;5201;48.776;9.128;2023-09-18T05:15:09;20.90;99.90
10312;DHT22;5201;48.776;9.128;2023-09-18T05:17:43;21.10;99.90
10312;DHT22;5201;48.776;9.128;2023-09-18T05:20:11;21.30;99.90
10312;DHT22;5201;48.776;9.128;2023-09-18T05:22:41;21.40;99.90
10312;DHT22;5201;48.776;9.128;2023-09-18T05:25:08;21.50;99.90
10312;DHT22;5201;48.776;9.128;2023-09-18T05:27:35;21.60;99.90
10312;DHT22;5201;48.776;9.128;2023-09-18T05:30:01;21.60;99.90
10312;DHT22;5201;48.776;9.128;2023-09-18T05:32:27;21.70;99.90
10312;DHT22;5201;48.776;9.128;2023-09-18T05:34:52;21.60;99.90
10312;DHT22;5201;48.776;9.128;2023-09-18T05:37:18;21.40;99.90
10312;DHT22;5201;48.776;9.128;2023-09-18T05:39:44;21.30;99.90
10312;DHT22;5201;48.776;9.128;2023-09-18T05:42:09;21.50;99.90
10312;DHT22;5201;48.776;9.128;2023-09-18T05:44:35;21.40;99.90
10312;DHT22;5201;48.776;9.128;2023-09-18T05:47:00;21.50;99.90
10312;DHT22;5201;48.776;9.128;2023-09-18T05:49:29;21.60;99.90
10312;DHT22;5201;48.776;9.128;2023-09-18T05:51:55;21.20;99.90
10312;DHT22;5201;48.776;9.128;2023-09-18T05:54:21;21.30;99.90
10312;DHT22;5201;48.776;9.128;2023-09-18T05:56:46;21.20;99.90
10312;DHT22;5201;48.776;9.128;2023-09-18T05:59:13;21.20;99.90
10312;DHT22;5201;48.776;9.128;2023-09-18T06:01:41;21.20;99.90
10312;DHT22;5201;48.776;9.128;2023-09-18T06:04:06;21.20;99.90
10312;DHT22;5201;48.776;9.128;2023-09-18T06:06:32;21.20;99.90
10312;DHT22;5201;48.776;9.128;2023-09-18T06:08:58;21.30;99.90
10312;DHT22;5201;48.776;9.128;2023-09-18T06:11:23;21.20;99.90
10312;DHT22;5201;48.776;9.128;2023-09-18T06:13:49;21.10;99.90
10312;DHT22;5201;48.776;9.128;2023-09-18T06:16:15;21.00;99.90
10312;DHT22;5201;48.776;9.128;2023-09-18T06:18:40;20.90;99.90
10312;DHT22;5201;48.776;9.128;2023-09-18T06:21:07;20.80;99.90
10312;DHT22;5201;48.776;9.128;2023-09-18T06:23:32;20.70;99.90
10312;DHT22;5201;48.776;9.128;2023-09-18T06:25:59;20.70;99.90
10312;DHT22;5201;48.776;9.128;2023-09-18T06:28:25;20.70;99.90
10312;DHT22;5201;48.776;9.128;2023-09-18T06:30:51;20.90;99.90
10312;DHT22;5201;48.776;9.128;2023-09-18T06:33:16;21.00;99.90
10312;DHT22;5201;48.776;9.128;2023-09-18T06:35:42;21.10;99.90
10312;DHT22;5201;48.776;9.128;2023-09-18T06:38:07;21.20;99.90
10312;DHT22;5201;48.776;9.128;2023-09-18T06:40:35;21.20;99.90
10312;DHT22;5201;48.776;9.128;2023-09-18T06:43:01;21.20;99.90
10312;DHT22;5201;48.776;9.128;2023-09-18T06:45:27;21.30;99.90
10312;DHT22;5201;48.776;9.128;2023-09-18T06:47:53;21.20;99.90
10312;DHT22;5201;48.776;9.128;2023-09-18T06:50:19;20.80;99.90
10312;DHT22;5201;48.776;9.128;2023-09-18T06:52:45;20.60;99.90
10312;DHT22;5201;48.776;9.128;2023-09-18T06:55:11;20.60;99.90
10312;DHT22;5201;48.776;9.128;2023-09-18T06:57:37;20.80;99.90
10312;DHT22;5201;48.776;9.128;2023-09-18T07:00:03;20.90;99.90
10312;DHT22;5201;48.776;9.128;2023-09-18T07:02:30;20.90;99.90
10312;DHT22;5201;48.776;9.128;2023-09-18T07:04:56;21.00;99.90
10312;DHT22;5201;48.776;9.128;2023-09-18T07:07:21;21.10;99.90
10312;DHT22;5201;48.776;9.128;2023-09-18T07:09:51;21.10;99.90
10312;DHT22;5201;48.776;9.128;2023-09-18T07:12:17;21.20;99.90
10312;DHT22;5201;48.776;9.128;2023-09-18T07:14:46;21.20;99.90
10312;DHT22;5201;48.776;9.128;2023-09-18T07:17:12;21.20;99.90
10312;DHT22;5201;48.776;9.128;2023-09-18T07:19:38;21.30;99.90
10312;DHT22;5201;48.776;9.128;2023-09-18T07:22:03;21.20;99.90
10312;DHT22;5201;48.776;9.128;2023-09-18T07:24:29;21.30;99.90
10312;DHT22;5201;48.776;9.128;2023-09-18T07:26:54;21.30;99.90
10312;DHT22;5201;48.776;9.128;2023-09-18T07:29:20;21.50;99.90
10312;DHT22;5201;48.776;9.128;2023-09-18T07:31:46;21.50;99.90
10312;DHT22;5201;48.776;9.128;2023-09-18T07:34:14;21.40;99.90
10312;DHT22;5201;48.776;9.128;2023-09-18T07:36:42;21.30;99.90
10312;DHT22;5201;48.776;9.128;2023-09-18T07:39:07;21.20;99.90
10312;DHT22;5201;48.776;9.128;2023-09-18T07:41:33;21.10;99.90
10312;DHT22;5201;48.776;9.128;2023-09-18T07:43:58;21.10;99.90
10312;DHT22;5201;48.776;9.128;2023-09-18T07:46:24;21.10;99.90
10312;DHT22;5201;48.776;9.128;2023-09-18T07:48:50;21.10;99.90
10312;DHT22;5201;48.776;9.128;2023-09-18T07:51:16;21.00;99.90
10312;DHT22;5201;48.776;9.128;2023-09-18T07:53:42;21.10;99.90
10312;DHT22;5201;48.776;9.128;2023-09-18T07:56:08;21.10;99.90
10312;DHT22;5201;48.776;9.128;2023-09-18T07:58:34;21.10;99.90
10312;DHT22;5201;48.776;9.128;2023-09-18T08:01:06;21.20;99.90
10312;DHT22;5201;48.776;9.128;2023-09-18T08:03:34;21.30;99.90
10312;DHT22;5201;48.776;9.128;2023-09-18T08:06:00;21.30;99.90
10312;DHT22;5201;48.776;9.128;2023-09-18T08:08:26;21.70;99.90
10312;DHT22;5201;48.776;9.128;2023-09-18T08:10:52;21.40;99.90
10312;DHT22;5201;48.776;9.128;2023-09-18T08:13:17;21.70;99.90
10312;DHT22;5201;48.776;9.128;2023-09-18T08:15:45;21.50;99.90
10312;DHT22;5201;48.776;9.128;2023-09-18T08:18:11;21.40;99.90
10312;DHT22;5201;48.776;9.128;2023-09-18T08:20:41;21.40;99.90
10312;DHT22;5201;48.776;9.128;2023-09-18T08:23:06;21.40;99.90
10312;DHT22;5201;48.776;9.128;2023-09-18T08:25:32;21.30;99.90
10312;DHT22;5201;48.776;9.128;2023-09-18T08:27:58;21.10;99.90
10312;DHT22;5201;48.776;9.128;2023-09-18T08:30:24;21.40;99.90
10312;DHT22;5201;48.776;9.128;2023-09-18T08:32:50;21.20;99.90
10312;DHT22;5201;48.776;9.128;2023-09-18T08:35:15;21.10;99.90
10312;DHT22;5201;48.776;9.128;2023-09-18T08:37:41;21.10;99.90
10312;DHT22;5201;48.776;9.128;2023-09-18T08:40:10;21.10;99.90
10312;DHT22;5201;48.776;9.128;2023-09-18T08:42:38;21.10;99.90
10312;DHT22;5201;48.776;9.128;2023-09-18T08:45:09;21.10;99.90
10312;DHT22;5201;48.776;9.128;2023-09-18T08:47:38;21.00;99.90
10312;DHT22;5201;48.776;9.128;2023-09-18T08:50:05;20.90;99.90
10312;DHT22;5201;48.776;9.128;2023-09-18T08:52:31;20.90;99.90
10312;DHT22;5201;48.776;9.128;2023-09-18T08:54:57;20.90;99.90
10312;DHT22;5201;48.776;9.128;2023-09-18T08:57:23;20.80;99.90
10312;DHT22;5201;48.776;9.128;2023-09-18T08:59:50;20.60;99.90
10312;DHT22;5201;48.776;9.128;2023-09-18T09:02:18;20.30;99.90
10312;DHT22;5201;48.776;9.128;2023-09-18T09:04:43;20.30;99.90
10312;DHT22;5201;48.776;9.128;2023-09-18T09:07:09;20.10;99.90
10312;DHT22;5201;48.776;9.128;2023-09-18T09:09:35;20.20;99.90
10312;DHT22;5201;48.776;9.128;2023-09-18T09:12:01;20.40;99.90
10312;DHT22;5201;48.776;9.128;2023-09-18T09:14:26;20.20;99.90
10312;DHT22;5201;48.776;9.128;2023-09-18T09:16:56;19.90;99.90
10312;DHT22;5201;48.776;9.128;2023-09-18T09:19:35;19.90;99.90
10312;DHT22;5201;48.776;9.128;2023-09-18T09:22:04;19.70;99.90
10312;DHT22;5201;48.776;9.128;2023-09-18T09:24:56;19.70;99.90
10312;DHT22;5201;48.776;9.128;2023-09-18T09:27:22;19.70;99.90
10312;DHT22;5201;48.776;9.128;2023-09-18T09:30:07;19.70;99.90
10312;DHT22;5201;48.776;9.128;2023-09-18T09:32:33;19.80;99.90
10312;DHT22;5201;48.776;9.128;2023-09-18T09:34:59;19.90;99.90
10312;DHT22;5201;48.776;9.128;2023-09-18T09:37:32;20.00;99.90
10312;DHT22;5201;48.776;9.128;2023-09-18T09:40:03;20.00;99.90
10312;DHT22;5201;48.776;9.128;2023-09-18T09:42:39;19.80;99.90
10312;DHT22;5201;48.776;9.128;2023-09-18T09:45:11;20.00;99.90
10312;DHT22;5201;48.776;9.128;2023-09-18T09:47:37;20.00;99.90
10312;DHT22;5201;48.776;9.128;2023-09-18T09:50:14;20.10;99.90
10312;DHT22;5201;48.776;9.128;2023-09-18T09:52:49;20.10;99.90
10312;DHT22;5201;48.776;9.128;2023-09-18T09:55:25;20.50;99.90
10312;DHT22;5201;48.776;9.128;2023-09-18T09:57:54;20.30;99.90
10312;DHT22;5201;48.776;9.128;2023-09-18T10:00:28;20.50;99.90
10312;DHT22;5201;48.776;9.128;2023-09-18T10:03:01;20.50;99.90
10312;DHT22;5201;48.776;9.128;2023-09-18T10:05:30;20.50;99.90
10312;DHT22;5201;48.776;9.128;2023-09-18T10:08:03;20.60;99.90
10312;DHT22;5201;48.776;9.128;2023-09-18T10:10:32;20.50;99.90
10312;DHT22;5201;48.776;9.128;2023-09-18T10:13:10;20.30;99.90
10312;DHT22;5201;48.776;9.128;2023-09-18T10:15:37;20.20;99.90
10312;DHT22;5201;48.776;9.128;2023-09-18T10:18:17;20.10;99.90
10312;DHT22;5201;48.776;9.128;2023-09-18T10:20:46;20.20;99.90
10312;DHT22;5201;48.776;9.128;2023-09-18T10:23:24;20.80;99.90
10312;DHT22;5201;48.776;9.128;2023-09-18T10:25:58;20.40;99.90
10312;DHT22;5201;48.776;9.128;2023-09-18T10:28:25;20.30;99.90
10312;DHT22;5201;48.776;9.128;2023-09-18T10:30:56;20.40;99.90
10312;DHT22;5201;48.776;9.128;2023-09-18T10:33:21;20.50;99.90
10312;DHT22;5201;48.776;9.128;2023-09-18T10:35:48;20.40;99.90
10312;DHT22;5201;48.776;9.128;2023-09-18T10:38:15;20.30;99.90
10312;DHT22;5201;48.776;9.128;2023-09-18T10:40:43;20.20;99.90
10312;DHT22;5201;48.776;9.128;2023-09-18T10:43:11;20.20;99.90
10312;DHT22;5201;48.776;9.128;2023-09-18T10:45:37;20.00;99.90
10312;DHT22;5201;48.776;9.128;2023-09-18T10:48:03;19.80;99.90
10312;DHT22;5201;48.776;9.128;2023-09-18T10:50:29;19.80;99.90
10312;DHT22;5201;48.776;9.128;2023-09-18T10:52:57;19.80;99.90
10312;DHT22;5201;48.776;9.128;2023-09-18T10:55:24;19.80;99.90
10312;DHT22;5201;48.776;9.128;2023-09-18T10:57:59;19.90;99.90
10312;DHT22;5201;48.776;9.128;2023-09-18T11:00:26;19.90;99.90
10312;DHT22;5201;48.776;9.128;2023-09-18T11:02:54;20.00;99.90
10312;DHT22;5201;48.776;9.128;2023-09-18T11:05:32;19.90;99.90
10312;DHT22;5201;48.776;9.128;2023-09-18T11:08:35;20.00;99.90
10312;DHT22;5201;48.776;9.128;2023-09-18T11:11:10;19.80;99.90
10312;DHT22;5201;48.776;9.128;2023-09-18T11:13:47;20.00;99.90
10312;DHT22;5201;48.776;9.128;2023-09-18T11:21:30;19.60;99.90
10312;DHT22;5201;48.776;9.128;2023-09-18T11:24:07;19.80;99.90
10312;DHT22;5201;48.776;9.128;2023-09-18T11:26:41;19.80;99.90
10312;DHT22;5201;48.776;9.128;2023-09-18T11:29:09;19.70;99.90
10312;DHT22;5201;48.776;9.128;2023-09-18T11:34:26;19.90;99.90
10312;DHT22;5201;48.776;9.128;2023-09-18T11:36:54;19.60;99.90
10312;DHT22;5201;48.776;9.128;2023-09-18T11:39:37;19.50;99.90
10312;DHT22;5201;48.776;9.128;2023-09-18T11:42:29;19.70;99.90
10312;DHT22;5201;48.776;9.128;2023-09-18T11:44:56;19.80;99.90
10312;DHT22;5201;48.776;9.128;2023-09-18T11:47:24;19.80;99.90
10312;DHT22;5201;48.776;9.128;2023-09-18T11:50:01;19.70;99.90
10312;DHT22;5201;48.776;9.128;2023-09-18T11:52:29;19.70;99.90
10312;DHT22;5201;48.776;9.128;2023-09-18T11:54:59;19.70;99.90
10312;DHT22;5201;48.776;9.128;2023-09-18T11:57:25;19.70;99.90
10312;DHT22;5201;48.776;9.128;2023-09-18T11:59:51;19.80;99.90
10312;DHT22;5201;48.776;9.128;2023-09-18T12:02:30;19.90;99.90
10312;DHT22;5201;48.776;9.128;2023-09-18T12:05:20;20.00;99.90
10312;DHT22;5201;48.776;9.128;2023-09-18T12:07:47;20.10;99.90
10312;DHT22;5201;48.776;9.128;2023-09-18T12:10:14;20.00;99.90
10312;DHT22;5201;48.776;9.128;2023-09-18T12:12:42;20.00;99.90
10312;DHT22;5201;48.776;9.128;2023-09-18T12:15:11;20.10;99.90
10312;DHT22;5201;48.776;9.128;2023-09-18T12:17:37;20.20;99.90
10312;DHT22;5201;48.776;9.128;2023-09-18T12:20:03;20.30;99.90
10312;DHT22;5201;48.776;9.128;2023-09-18T12:22:30;20.20;99.90
10312;DHT22;5201;48.776;9.128;2023-09-18T12:25:11;20.30;99.90
10312;DHT22;5201;48.776;9.128;2023-09-18T12:27:37;20.40;99.90
10312;DHT22;5201;48.776;9.128;2023-09-18T12:30:04;20.40;99.90
10312;DHT22;5201;48.776;9.128;2023-09-18T12:32:30;20.30;99.90
10312;DHT22;5201;48.776;9.128;2023-09-18T12:34:58;20.30;99.90
10312;DHT22;5201;48.776;9.128;2023-09-18T12:37:24;20.30;99.90
10312;DHT22;5201;48.776;9.128;2023-09-18T12:39:50;20.30;99.90
10312;DHT22;5201;48.776;9.128;2023-09-18T12:42:20;20.70;99.90
10312;DHT22;5201;48.776;9.128;2023-09-18T12:44:47;20.50;99.90
10312;DHT22;5201;48.776;9.128;2023-09-18T12:47:14;20.60;99.90
10312;DHT22;5201;48.776;9.128;2023-09-18T12:49:39;20.60;99.90
10312;DHT22;5201;48.776;9.128;2023-09-18T12:52:06;20.60;99.90
10312;DHT22;5201;48.776;9.128;2023-09-18T12:54:44;20.60;99.90
10312;DHT22;5201;48.776;9.128;2023-09-18T12:57:20;20.70;99.90
10312;DHT22;5201;48.776;9.128;2023-09-18T12:59:46;20.80;99.90
10312;DHT22;5201;48.776;9.128;2023-09-18T13:02:17;21.00;99.90
10312;DHT22;5201;48.776;9.128;2023-09-18T13:04:51;21.00;99.90
10312;DHT22;5201;48.776;9.128;2023-09-18T13:07:17;21.10;99.90
10312;DHT22;5201;48.776;9.128;2023-09-18T13:10:01;21.20;99.90
10312;DHT22;5201;48.776;9.128;2023-09-18T13:12:45;21.20;99.90
10312;DHT22;5201;48.776;9.128;2023-09-18T13:15:11;21.20;99.90
10312;DHT22;5201;48.776;9.128;2023-09-18T13:17:45;21.20;99.90
10312;DHT22;5201;48.776;9.128;2023-09-18T13:20:28;21.20;99.90
10312;DHT22;5201;48.776;9.128;2023-09-18T13:22:58;21.00;99.90
10312;DHT22;5201;48.776;9.128;2023-09-18T13:25:29;21.00;99.90
10312;DHT22;5201;48.776;9.128;2023-09-18T13:27:55;21.10;99.90
10312;DHT22;5201;48.776;9.128;2023-09-18T13:30:21;21.20;99.90
10312;DHT22;5201;48.776;9.128;2023-09-18T13:32:49;21.20;99.90
10312;DHT22;5201;48.776;9.128;2023-09-18T13:35:18;21.30;99.90
10312;DHT22;5201;48.776;9.128;2023-09-18T13:37:44;21.30;99.90
10312;DHT22;5201;48.776;9.128;2023-09-18T13:40:11;21.50;99.90
10312;DHT22;5201;48.776;9.128;2023-09-18T13:42:38;21.40;99.90
10312;DHT22;5201;48.776;9.128;2023-09-18T13:45:07;21.50;99.90
10312;DHT22;5201;48.776;9.128;2023-09-18T13:47:34;21.40;99.90
10312;DHT22;5201;48.776;9.128;2023-09-18T13:50:01;21.40;99.90
10312;DHT22;5201;48.776;9.128;2023-09-18T13:52:28;21.40;99.90
10312;DHT22;5201;48.776;9.128;2023-09-18T13:54:54;21.40;99.90
10312;DHT22;5201;48.776;9.128;2023-09-18T13:57:20;21.40;99.90
10312;DHT22;5201;48.776;9.128;2023-09-18T13:59:46;21.40;99.90
10312;DHT22;5201;48.776;9.128;2023-09-18T14:02:14;21.40;99.90
10312;DHT22;5201;48.776;9.128;2023-09-18T14:04:40;21.40;99.90
10312;DHT22;5201;48.776;9.128;2023-09-18T14:07:10;21.60;99.90
10312;DHT22;5201;48.776;9.128;2023-09-18T14:09:37;21.70;99.90
10312;DHT22;5201;48.776;9.128;2023-09-18T14:12:03;21.80;99.90
10312;DHT22;5201;48.776;9.128;2023-09-18T14:14:29;21.80;99.90
10312;DHT22;5201;48.776;9.128;2023-09-18T14:16:55;21.60;99.90
10312;DHT22;5201;48.776;9.128;2023-09-18T14:19:21;21.50;99.90
10312;DHT22;5201;48.776;9.128;2023-09-18T14:21:46;21.50;99.90
10312;DHT22;5201;48.776;9.128;2023-09-18T14:24:15;21.60;99.90
10312;DHT22;5201;48.776;9.128;2023-09-18T14:26:40;21.70;99.90
10312;DHT22;5201;48.776;9.128;2023-09-18T14:29:12;21.70;99.90
10312;DHT22;5201;48.776;9.128;2023-09-18T14:31:39;22.10;99.90
10312;DHT22;5201;48.776;9.128;2023-09-18T14:34:05;21.90;99.90
10312;DHT22;5201;48.776;9.128;2023-09-18T14:36:34;21.70;99.90
10312;DHT22;5201;48.776;9.128;2023-09-18T14:39:03;21.70;99.90
10312;DHT22;5201;48.776;9.128;2023-09-18T14:41:28;21.60;99.90
10312;DHT22;5201;48.776;9.128;2023-09-18T14:43:55;21.70;99.90
10312;DHT22;5201;48.776;9.128;2023-09-18T14:46:23;21.70;99.90
10312;DHT22;5201;48.776;9.128;2023-09-18T14:48:48;22.00;99.90
10312;DHT22;5201;48.776;9.128;2023-09-18T14:51:14;21.70;99.90
10312;DHT22;5201;48.776;9.128;2023-09-18T14:53:39;21.70;99.90
10312;DHT22;5201;48.776;9.128;2023-09-18T14:56:05;21.80;99.90
10312;DHT22;5201;48.776;9.128;2023-09-18T14:58:31;21.80;99.90
10312;DHT22;5201;48.776;9.128;2023-09-18T15:00:59;21.90;99.90
10312;DHT22;5201;48.776;9.128;2023-09-18T15:03:25;22.00;99.90
10312;DHT22;5201;48.776;9.128;2023-09-18T15:05:52;22.10;99.90
10312;DHT22;5201;48.776;9.128;2023-09-18T15:08:19;22.00;99.90
10312;DHT22;5201;48.776;9.128;2023-09-18T15:10:45;22.00;99.90
10312;DHT22;5201;48.776;9.128;2023-09-18T15:13:11;22.00;99.90
10312;DHT22;5201;48.776;9.128;2023-09-18T15:15:37;21.70;99.90
10312;DHT22;5201;48.776;9.128;2023-09-18T15:18:02;21.70;99.90
10312;DHT22;5201;48.776;9.128;2023-09-18T15:20:28;21.60;99.90
10312;DHT22;5201;48.776;9.128;2023-09-18T15:22:54;21.70;99.90
10312;DHT22;5201;48.776;9.128;2023-09-18T15:25:21;21.80;99.90
10312;DHT22;5201;48.776;9.128;2023-09-18T15:27:47;21.70;99.90
10312;DHT22;5201;48.776;9.128;2023-09-18T15:30:13;21.70;99.90
10312;DHT22;5201;48.776;9.128;2023-09-18T15:32:51;21.80;99.90
10312;DHT22;5201;48.776;9.128;2023-09-18T15:35:24;21.60;99.90
10312;DHT22;5201;48.776;9.128;2023-09-18T15:37:51;21.50;99.90
10312;DHT22;5201;48.776;9.128;2023-09-18T15:40:17;21.50;99.90
10312;DHT22;5201;48.776;9.128;2023-09-18T15:42:45;21.40;99.90
10312;DHT22;5201;48.776;9.128;2023-09-18T15:45:11;21.40;99.90
10312;DHT22;5201;48.776;9.128;2023-09-18T15:47:40;21.40;99.90
10312;DHT22;5201;48.776;9.128;2023-09-18T15:50:08;21.50;99.90
10312;DHT22;5201;48.776;9.128;2023-09-18T15:52:35;21.40;99.90
10312;DHT22;5201;48.776;9.128;2023-09-18T15:55:02;21.50;99.90
10312;DHT22;5201;48.776;9.128;2023-09-18T15:57:30;21.20;99.90